Time;durP1;ratioP1;P1;durP2;ratioP2;P2;SDS_P1;SDS_P2;PMS_P1;PMS_P2;Temp;Humidity;BMP_temperature;BMP_pressure;BME280_temperature;BME280_humidity;BME280_pressure;Samples;Min_cycle;Max_cycle;Signal;HPM_P1;HPM_P2
2023/02/17 00:00:07;;;;;;;18.55;9.75;;;;;;;0.07;66.14;95715.53;5056423;28;20055;-73
2023/02/17 00:02:33;;;;;;;15.80;8.43;;;;;;;0.25;65.09;95717.56;5051755;28;20590;-73
2023/02/17 00:04:59;;;;;;;16.60;9.43;;;;;;;0.24;64.10;95702.28;5052936;28;20031;-73
2023/02/17 00:07:24;;;;;;;19.48;10.27;;;;;;;0.43;63.80;95716.22;5067551;28;20058;-73
2023/02/17 00:09:50;;;;;;;18.48;9.75;;;;;;;-0.18;65.85;95620.88;5069736;28;20025;-73
2023/02/17 00:12:15;;;;;;;19.88;9.77;;;;;;;0.14;66.46;95714.47;5070408;28;20110;-73
2023/02/17 00:14:42;;;;;;;16.40;8.90;;;;;;;0.16;66.66;95716.09;5069509;28;20056;-73
2023/02/17 00:17:07;;;;;;;14.60;8.20;;;;;;;-0.19;67.66;95711.16;5068352;28;20040;-73
2023/02/17 00:19:33;;;;;;;14.50;7.60;;;;;;;-0.20;67.35;95710.28;5069634;28;20337;-73
2023/02/17 00:21:59;;;;;;;15.00;8.07;;;;;;;-0.33;67.24;95674.03;5036258;28;20028;-73
2023/02/17 00:24:25;;;;;;;12.77;8.15;;;;;;;-0.64;66.81;95620.41;5067617;28;20028;-73
2023/02/17 00:26:51;;;;;;;14.27;7.75;;;;;;;-0.07;66.60;95709.09;5052513;28;20032;-73
2023/02/17 00:29:16;;;;;;;14.77;7.60;;;;;;;-0.18;66.79;95685.53;5069501;28;20037;-73
2023/02/17 00:31:43;;;;;;;18.23;9.15;;;;;;;-0.14;66.39;95687.16;5069110;28;20036;-73
2023/02/17 00:34:08;;;;;;;17.38;10.23;;;;;;;-0.03;65.89;95686.84;5047730;28;20111;-73
2023/02/17 00:36:33;;;;;;;17.80;9.27;;;;;;;-0.38;66.52;95634.19;5069944;28;20379;-73
2023/02/17 00:38:59;;;;;;;12.65;7.15;;;;;;;0.02;65.02;95679.88;5069510;28;20043;-73
2023/02/17 00:41:25;;;;;;;13.45;6.90;;;;;;;0.26;63.40;95687.75;5069292;28;20033;-73
2023/02/17 00:43:51;;;;;;;12.75;7.43;;;;;;;-0.21;62.64;95580.91;5032349;28;20029;-73
2023/02/17 00:46:16;;;;;;;12.27;6.95;;;;;;;0.49;62.72;95684.53;5065806;28;20402;-73
2023/02/17 00:48:42;;;;;;;16.08;8.05;;;;;;;0.53;62.29;95680.97;5051297;28;20091;-73
2023/02/17 00:51:07;;;;;;;16.27;8.50;;;;;;;0.58;62.23;95676.56;5036564;28;20421;-73
2023/02/17 00:53:33;;;;;;;15.35;8.27;;;;;;;0.56;62.37;95666.41;5039203;28;20041;-73
2023/02/17 00:55:58;;;;;;;15.50;8.50;;;;;;;0.66;62.44;95679.75;5074329;28;20040;-73
2023/02/17 00:58:24;;;;;;;18.42;10.23;;;;;;;0.62;62.57;95686.69;5055655;28;20036;-74
2023/02/17 01:00:49;;;;;;;15.85;8.75;;;;;;;0.36;63.54;95674.66;5076229;28;20040;-73
2023/02/17 01:03:15;;;;;;;16.20;9.00;;;;;;;0.33;63.82;95686.69;5034709;28;20442;-74
2023/02/17 01:05:45;;;;;;;16.77;9.68;;;;;;;0.25;65.00;95684.34;5062496;28;20421;-74
2023/02/17 01:08:11;;;;;;;17.23;9.30;;;;;;;0.23;66.09;95683.56;5072600;28;20060;-73
2023/02/17 01:10:37;;;;;;;19.80;10.85;;;;;;;0.11;65.01;95689.88;5057340;28;20513;-76
2023/02/17 01:13:03;;;;;;;23.42;10.63;;;;;;;-0.12;65.45;95689.66;5055841;28;20052;-74
2023/02/17 01:15:29;;;;;;;32.45;17.10;;;;;;;-0.11;65.08;95683.66;5056544;28;20249;-73
2023/02/17 01:17:54;;;;;;;22.67;12.73;;;;;;;-0.08;65.15;95684.44;5067421;28;20029;-73
2023/02/17 01:20:20;;;;;;;21.95;10.45;;;;;;;-0.24;65.92;95685.72;5076366;28;20097;-73
2023/02/17 01:22:45;;;;;;;18.10;9.93;;;;;;;-0.38;66.20;95686.09;5093782;28;20104;-73
2023/02/17 01:25:11;;;;;;;16.90;9.20;;;;;;;-0.69;66.55;95633.28;5080418;28;20119;-73
2023/02/17 01:27:36;;;;;;;16.80;9.65;;;;;;;-0.42;66.84;95678.53;5092704;28;20032;-73
2023/02/17 01:30:02;;;;;;;16.15;9.23;;;;;;;-0.60;67.53;95644.97;5077122;28;20033;-73
2023/02/17 01:32:28;;;;;;;21.95;10.00;;;;;;;-0.74;67.18;95641.94;5075840;28;20485;-73
2023/02/17 01:34:53;;;;;;;19.60;9.73;;;;;;;-0.41;67.72;95670.84;5094016;28;20081;-73
2023/02/17 01:37:19;;;;;;;15.98;9.70;;;;;;;-0.48;68.39;95664.22;5047453;28;20474;-71
2023/02/17 01:39:44;;;;;;;16.10;9.38;;;;;;;-0.43;68.24;95671.75;5072006;28;20036;-74
2023/02/17 01:42:14;;;;;;;16.52;9.82;;;;;;;-0.66;68.43;95631.53;5075128;28;20470;-73
2023/02/17 01:45:17;;;;;;;18.27;10.57;;;;;;;-0.28;67.80;95663.69;5082500;28;20041;-74
2023/02/17 01:47:53;;;;;;;15.57;9.68;;;;;;;-0.17;67.01;95666.78;5080895;28;20521;-74
2023/02/17 01:50:21;;;;;;;13.55;8.38;;;;;;;-0.17;66.77;95655.72;5090234;28;20037;-73
2023/02/17 01:52:46;;;;;;;16.60;9.10;;;;;;;-0.14;66.56;95664.16;5064362;28;20420;-72
2023/02/17 01:55:14;;;;;;;23.88;11.88;;;;;;;-0.16;67.10;95653.16;5075447;28;20043;-72
2023/02/17 01:57:40;;;;;;;21.58;10.90;;;;;;;-0.17;67.19;95653.19;5089922;28;20035;-73
2023/02/17 02:00:06;;;;;;;19.35;9.05;;;;;;;-0.16;67.66;95665.09;5054065;28;20151;-73
2023/02/17 02:02:31;;;;;;;18.15;8.88;;;;;;;-0.66;67.34;95595.81;5066146;28;20028;-73
2023/02/17 02:04:57;;;;;;;17.33;9.48;;;;;;;-0.53;67.18;95628.63;5063123;28;20487;-73
2023/02/17 02:07:26;;;;;;;18.20;10.60;;;;;;;-0.55;66.54;95663.53;5044190;28;20024;-74
2023/02/17 02:09:53;;;;;;;19.85;10.75;;;;;;;-0.54;67.20;95667.75;5075264;28;20024;-73
2023/02/17 02:12:22;;;;;;;18.48;9.60;;;;;;;-0.61;67.89;95657.75;5106493;27;20044;-73
2023/02/17 02:14:47;;;;;;;20.02;9.88;;;;;;;-0.63;67.71;95662.06;5069557;28;20043;-73
2023/02/17 02:17:29;;;;;;;19.48;9.25;;;;;;;-0.64;68.14;95668.91;5042282;28;20024;-73
2023/02/17 02:20:10;;;;;;;;;;;;;;;-0.62;68.24;95674.78;5092549;28;20032;-73
2023/02/17 02:22:47;;;;;;;17.83;9.13;;;;;;;-0.78;68.01;95683.69;5083980;28;19916;-73
2023/02/17 02:25:28;;;;;;;17.60;9.32;;;;;;;-0.78;68.52;95668.38;5068854;28;20111;-73
2023/02/17 02:28:05;;;;;;;18.88;9.80;;;;;;;-0.91;68.84;95666.16;5083280;28;20032;-73
2023/02/17 02:31:22;;;;;;;18.25;9.52;;;;;;;-0.85;69.68;95664.31;5093031;28;20107;-73
2023/02/17 02:33:56;;;;;;;18.95;9.57;;;;;;;-0.97;69.29;95671.41;5034735;28;20522;-73
2023/02/17 02:36:54;;;;;;;19.35;10.25;;;;;;;-0.95;69.20;95656.91;5052672;28;20100;-73
2023/02/17 02:39:20;;;;;;;23.42;11.05;;;;;;;-1.19;69.35;95642.19;5020583;28;20515;-73
2023/02/17 02:42:15;;;;;;;24.83;12.38;;;;;;;-0.99;69.26;95673.13;5055947;28;20028;-73
2023/02/17 02:44:40;;;;;;;17.58;9.68;;;;;;;-1.05;69.87;95663.09;5051831;28;20094;-73
2023/02/17 02:47:34;;;;;;;19.77;10.65;;;;;;;-1.13;70.56;95672.63;5054237;28;20034;-73
2023/02/17 02:50:00;;;;;;;18.38;9.70;;;;;;;-1.17;70.57;95659.13;5072376;28;20129;-73
2023/02/17 02:52:30;;;;;;;18.77;9.52;;;;;;;-1.15;68.85;95661.63;5036244;28;20071;-73
2023/02/17 02:54:58;;;;;;;19.63;11.23;;;;;;;-1.30;69.52;95657.72;5063276;28;20052;-73
2023/02/17 02:57:38;;;;;;;17.45;9.65;;;;;;;-1.16;69.08;95671.00;5084132;28;20059;-73
2023/02/17 03:00:25;;;;;;;18.65;10.73;;;;;;;-1.30;69.48;95656.91;5051096;28;20029;-73
2023/02/17 03:02:56;;;;;;;21.38;10.00;;;;;;;-1.27;70.98;95672.13;5052327;28;20123;-73
2023/02/17 03:05:31;;;;;;;17.05;9.32;;;;;;;-1.26;71.09;95669.53;5054856;28;20033;-73
2023/02/17 03:08:25;;;;;;;17.67;9.48;;;;;;;-1.14;70.81;95674.34;5072460;28;20029;-73
2023/02/17 03:10:51;;;;;;;15.70;8.73;;;;;;;-1.26;70.90;95664.41;5065871;28;20052;-73
2023/02/17 03:13:17;;;;;;;18.83;9.93;;;;;;;-1.28;71.01;95657.69;5053450;28;20048;-73
2023/02/17 03:15:43;;;;;;;18.23;10.07;;;;;;;-1.36;70.64;95666.34;5033614;28;20487;-73
2023/02/17 03:18:08;;;;;;;19.70;10.15;;;;;;;-1.20;70.77;95659.19;5037311;28;20170;-73
2023/02/17 03:20:36;;;;;;;18.05;9.93;;;;;;;-1.57;70.27;95619.25;5070596;28;20453;-73
2023/02/17 03:23:02;;;;;;;17.13;9.27;;;;;;;-1.16;70.64;95670.16;5050199;28;20483;-74
2023/02/17 03:25:27;;;;;;;20.67;10.50;;;;;;;-1.28;70.43;95665.31;5067126;28;20115;-73
2023/02/17 03:27:53;;;;;;;19.98;11.50;;;;;;;-1.49;71.05;95636.91;5075544;28;20103;-73
2023/02/17 03:30:18;;;;;;;17.85;10.13;;;;;;;-1.23;70.76;95666.91;5070404;28;20035;-73
2023/02/17 03:32:44;;;;;;;16.85;10.20;;;;;;;-1.19;70.82;95675.34;5037142;28;20044;-73
2023/02/17 03:35:09;;;;;;;17.80;10.13;;;;;;;-1.19;70.40;95676.16;5069896;28;20048;-73
2023/02/17 03:37:35;;;;;;;18.08;10.35;;;;;;;-1.27;69.80;95677.22;5052562;28;20031;-73
2023/02/17 03:40:00;;;;;;;20.67;10.40;;;;;;;-1.47;70.39;95658.13;5071368;28;20033;-73
2023/02/17 03:42:26;;;;;;;16.83;9.43;;;;;;;-1.40;70.15;95676.66;5053309;28;20387;-73
2023/02/17 03:44:51;;;;;;;22.88;9.40;;;;;;;-1.42;69.83;95678.38;5070170;28;20041;-73
2023/02/17 03:47:17;;;;;;;16.38;9.10;;;;;;;-1.54;70.08;95664.22;5070676;28;20032;-73
2023/02/17 03:49:42;;;;;;;15.98;8.02;;;;;;;-1.42;70.91;95660.53;5086878;28;20430;-73
2023/02/17 03:52:08;;;;;;;19.95;8.77;;;;;;;-1.33;70.56;95667.16;5053186;28;20024;-73
2023/02/17 03:54:34;;;;;;;14.90;8.98;;;;;;;-1.55;71.13;95671.91;5051994;28;20108;-73
2023/02/17 03:57:00;;;;;;;21.90;9.38;;;;;;;-1.45;70.52;95669.13;5071317;28;20036;-73
2023/02/17 03:59:26;;;;;;;15.52;8.68;;;;;;;-1.49;70.97;95654.75;5069613;28;20036;-74
2023/02/17 04:01:51;;;;;;;15.80;8.20;;;;;;;-1.50;70.98;95653.09;5053248;28;20081;-73
2023/02/17 04:04:17;;;;;;;28.95;14.50;;;;;;;-1.51;70.86;95663.31;5068644;28;20032;-73
2023/02/17 04:06:42;;;;;;;26.13;13.65;;;;;;;-1.59;71.18;95661.78;5036293;28;20021;-73
2023/02/17 04:09:07;;;;;;;20.25;10.23;;;;;;;-1.60;71.39;95656.72;5053004;28;20032;-73
2023/02/17 04:11:33;;;;;;;18.38;9.55;;;;;;;-1.60;71.09;95649.91;5069391;28;20024;-73
2023/02/17 04:13:58;;;;;;;17.95;8.60;;;;;;;-1.64;71.76;95660.22;5049159;28;20033;-73
2023/02/17 04:16:24;;;;;;;14.95;8.32;;;;;;;-1.37;71.01;95671.47;5050688;28;20028;-73
2023/02/17 04:18:49;;;;;;;15.85;8.80;;;;;;;-1.54;70.91;95654.00;5049531;28;20044;-73
2023/02/17 04:21:15;;;;;;;17.30;9.63;;;;;;;-1.52;71.23;95670.13;5050845;28;20032;-73
2023/02/17 04:23:40;;;;;;;17.30;9.77;;;;;;;-1.65;71.58;95661.91;5048920;28;20033;-73
2023/02/17 04:26:06;;;;;;;17.42;8.20;;;;;;;-1.59;71.35;95664.34;5041767;28;20096;-73
2023/02/17 04:28:32;;;;;;;15.32;9.27;;;;;;;-1.55;71.65;95670.19;5036356;28;20528;-73
2023/02/17 04:30:57;;;;;;;17.40;9.60;;;;;;;-1.61;71.18;95667.78;5069939;28;20028;-73
2023/02/17 04:33:23;;;;;;;15.82;9.10;;;;;;;-1.70;71.15;95678.16;5049276;28;20446;-74
2023/02/17 04:35:48;;;;;;;16.50;11.05;;;;;;;-1.95;71.09;95617.56;5059067;28;20027;-73
2023/02/17 04:38:14;;;;;;;23.60;13.32;;;;;;;-1.84;71.36;95636.00;5048068;28;20032;-73
2023/02/17 04:40:39;;;;;;;17.58;10.30;;;;;;;-1.75;72.09;95664.69;5048443;28;20044;-73
2023/02/17 04:43:05;;;;;;;15.93;9.25;;;;;;;-1.74;71.99;95657.00;5031096;28;20104;-73
2023/02/17 04:45:31;;;;;;;16.73;9.32;;;;;;;-1.68;70.39;95650.94;5064932;28;20028;-73
2023/02/17 04:47:56;;;;;;;16.13;9.55;;;;;;;-1.70;71.18;95673.06;5035785;28;20471;-73
2023/02/17 04:50:21;;;;;;;17.85;10.70;;;;;;;-1.82;71.81;95666.53;5051869;28;20033;-73
2023/02/17 04:52:47;;;;;;;17.38;9.60;;;;;;;-1.99;72.05;95627.84;5052586;28;20499;-73
2023/02/17 04:55:12;;;;;;;17.58;9.57;;;;;;;-1.80;71.82;95659.69;5069945;28;20414;-73
2023/02/17 04:57:38;;;;;;;19.20;9.85;;;;;;;-1.58;72.41;95678.75;5052541;28;20060;-73
2023/02/17 05:00:04;;;;;;;20.48;10.00;;;;;;;-1.69;72.26;95683.22;5052622;28;20035;-74
2023/02/17 05:02:30;;;;;;;16.98;10.70;;;;;;;-1.82;72.39;95679.25;5069091;28;20029;-73
2023/02/17 05:04:55;;;;;;;23.73;10.75;;;;;;;-1.76;72.42;95674.03;5052136;28;20055;-73
2023/02/17 05:07:21;;;;;;;17.40;9.85;;;;;;;-1.57;72.36;95682.13;5068369;28;20130;-73
2023/02/17 05:09:46;;;;;;;18.90;10.02;;;;;;;-1.57;72.40;95670.22;5048450;28;20033;-73
2023/02/17 05:12:12;;;;;;;19.05;10.40;;;;;;;-1.52;71.60;95699.88;5058398;28;20053;-73
2023/02/17 05:14:37;;;;;;;17.52;10.40;;;;;;;-1.76;72.18;95686.75;5069075;28;20032;-73
2023/02/17 05:17:03;;;;;;;19.52;10.40;;;;;;;-1.75;72.36;95708.84;5049281;28;20204;-73
2023/02/17 05:19:28;;;;;;;22.05;11.07;;;;;;;-1.70;72.11;95704.50;5045200;28;20028;-73
2023/02/17 05:21:54;;;;;;;20.00;10.18;;;;;;;-1.65;72.02;95705.22;5068338;28;20024;-73
2023/02/17 05:24:19;;;;;;;20.40;10.50;;;;;;;-1.54;71.98;95707.53;5069125;28;20033;-73
2023/02/17 05:26:44;;;;;;;19.20;10.63;;;;;;;-1.62;72.38;95683.91;5051973;28;20036;-73
2023/02/17 05:29:10;;;;;;;21.63;11.30;;;;;;;-1.49;72.59;95717.66;5062550;28;20036;-71
2023/02/17 05:31:35;;;;;;;21.10;10.05;;;;;;;-1.43;72.42;95710.69;5063422;28;20028;-72
2023/02/17 05:34:01;;;;;;;19.65;10.52;;;;;;;-1.50;72.65;95721.91;5067548;28;20040;-74
2023/02/17 05:36:26;;;;;;;19.23;9.98;;;;;;;-1.53;72.86;95710.91;5050074;28;20056;-73
2023/02/17 05:38:52;;;;;;;20.45;11.43;;;;;;;-1.41;72.51;95719.16;5081821;28;20414;-74
2023/02/17 05:41:18;;;;;;;18.30;10.88;;;;;;;-1.63;72.49;95710.28;5067614;28;20051;-73
2023/02/17 05:43:43;;;;;;;18.45;10.50;;;;;;;-1.47;72.26;95726.09;5051392;28;20036;-73
2023/02/17 05:46:09;;;;;;;20.05;10.38;;;;;;;-1.39;71.88;95704.66;5050878;28;20037;-73
2023/02/17 05:48:34;;;;;;;28.17;13.90;;;;;;;-1.13;71.70;95726.19;5069665;28;20032;-73
2023/02/17 05:51:00;;;;;;;25.20;12.93;;;;;;;-1.00;71.70;95727.59;5085020;28;20029;-74
2023/02/17 05:53:25;;;;;;;21.58;11.70;;;;;;;-0.97;71.76;95713.94;5051310;28;20037;-73
2023/02/17 05:55:51;;;;;;;23.92;12.02;;;;;;;-0.96;71.78;95716.44;5066933;28;20074;-73
2023/02/17 05:58:16;;;;;;;23.92;11.68;;;;;;;-0.81;70.68;95722.03;5062229;28;20048;-73
2023/02/17 06:00:42;;;;;;;23.20;12.05;;;;;;;-0.83;70.91;95718.72;5072667;28;20024;-73
2023/02/17 06:03:07;;;;;;;18.92;11.13;;;;;;;-0.64;70.08;95735.25;5035283;28;20036;-73
2023/02/17 06:05:33;;;;;;;21.45;10.60;;;;;;;-0.50;70.15;95738.31;5069048;28;20024;-73
2023/02/17 06:07:58;;;;;;;21.08;10.63;;;;;;;-0.44;70.40;95733.91;5066674;28;20033;-73
2023/02/17 06:10:24;;;;;;;19.25;10.93;;;;;;;-0.27;69.81;95732.59;5053843;28;20513;-74
2023/02/17 06:12:49;;;;;;;16.63;8.85;;;;;;;-0.16;68.00;95713.63;5051014;28;20590;-73
2023/02/17 06:15:15;;;;;;;17.30;8.63;;;;;;;-0.03;68.02;95722.59;5084767;28;20041;-73
2023/02/17 06:17:40;;;;;;;12.48;7.13;;;;;;;0.18;66.17;95733.97;5050171;28;20108;-73
2023/02/17 06:20:07;;;;;;;13.07;7.40;;;;;;;0.26;66.00;95734.59;5051429;28;20036;-73
2023/02/17 06:22:32;;;;;;;26.70;14.48;;;;;;;0.43;66.09;95729.84;5051003;28;20039;-73
2023/02/17 06:24:58;;;;;;;14.73;8.82;;;;;;;0.48;66.84;95727.16;5050443;28;20045;-73
2023/02/17 06:27:23;;;;;;;26.52;13.55;;;;;;;0.56;65.86;95735.44;5080569;28;20028;-73
2023/02/17 06:29:49;;;;;;;20.25;11.20;;;;;;;0.49;66.76;95731.38;5066638;28;20052;-73
2023/02/17 06:32:14;;;;;;;22.25;11.43;;;;;;;0.30;66.58;95695.28;5067808;28;20039;-73
2023/02/17 06:34:40;;;;;;;17.98;9.05;;;;;;;0.68;67.32;95741.91;5068770;28;20040;-73
2023/02/17 06:37:05;;;;;;;18.55;9.68;;;;;;;0.71;66.51;95730.75;5066628;28;20040;-73
2023/02/17 06:39:31;;;;;;;17.42;9.35;;;;;;;0.70;66.97;95735.03;5050150;28;20303;-73
2023/02/17 06:41:56;;;;;;;15.13;8.20;;;;;;;0.90;67.44;95744.69;5051252;28;20036;-73
2023/02/17 06:44:22;;;;;;;14.13;8.38;;;;;;;0.88;67.13;95747.28;5068408;28;20028;-72
2023/02/17 06:46:47;;;;;;;16.17;9.30;;;;;;;0.98;67.61;95752.13;5064214;28;20089;-73
2023/02/17 06:49:13;;;;;;;20.27;10.55;;;;;;;0.92;67.09;95727.56;5069569;28;20033;-75
2023/02/17 06:51:38;;;;;;;15.60;9.73;;;;;;;1.08;66.78;95740.72;5066563;28;20505;-74
2023/02/17 06:54:04;;;;;;;106.95;40.75;;;;;;;1.20;66.78;95747.16;5049744;28;20107;-72
2023/02/17 06:56:29;;;;;;;36.42;20.42;;;;;;;1.70;64.74;95747.25;5078005;28;20031;-73
2023/02/17 06:58:55;;;;;;;42.92;19.67;;;;;;;2.64;62.64;95762.78;5073207;28;20035;-74
2023/02/17 07:01:22;;;;;;;177.50;68.20;;;;;;;4.17;57.87;95749.00;5036196;28;20685;-74
2023/02/17 07:03:48;;;;;;;153.90;62.60;;;;;;;5.33;54.37;95753.22;5051622;28;20090;-73
2023/02/17 07:06:13;;;;;;;93.60;42.70;;;;;;;6.31;51.97;95745.00;5095117;28;20040;-73
2023/02/17 07:08:39;;;;;;;54.42;28.90;;;;;;;7.57;48.75;95746.00;5065408;28;20074;-73
2023/02/17 07:11:05;;;;;;;67.18;36.80;;;;;;;8.73;45.33;95743.59;5049689;28;20288;-73
2023/02/17 07:13:31;;;;;;;29.40;17.38;;;;;;;9.68;42.87;95740.22;5074442;28;20156;-74
2023/02/17 07:15:56;;;;;;;34.42;16.08;;;;;;;11.10;40.09;95747.19;5062939;28;20032;-73
2023/02/17 07:18:22;;;;;;;30.35;17.35;;;;;;;11.62;38.77;95751.28;5044768;28;20044;-73
2023/02/17 07:20:47;;;;;;;32.75;18.48;;;;;;;12.27;37.17;95744.81;5066963;28;20048;-74
2023/02/17 07:23:13;;;;;;;32.70;18.65;;;;;;;12.78;36.07;95751.41;5067839;28;20562;-75
2023/02/17 07:25:38;;;;;;;40.13;21.98;;;;;;;12.59;36.02;95739.78;5068720;28;20457;-73
2023/02/17 07:28:04;;;;;;;41.95;24.33;;;;;;;11.84;37.13;95743.56;5075980;28;20032;-73
2023/02/17 07:30:29;;;;;;;38.40;21.88;;;;;;;11.44;38.34;95757.78;5057738;28;20560;-73
2023/02/17 07:32:55;;;;;;;31.52;19.33;;;;;;;12.15;36.93;95754.38;5071100;28;20028;-73
2023/02/17 07:35:20;;;;;;;37.75;21.40;;;;;;;11.67;37.61;95753.53;5071403;28;20490;-73
2023/02/17 07:37:46;;;;;;;35.28;21.30;;;;;;;11.71;37.86;95739.38;5071048;28;20024;-74
2023/02/17 07:40:11;;;;;;;32.80;21.10;;;;;;;12.03;37.42;95761.28;5062790;28;20479;-73
2023/02/17 07:42:37;;;;;;;41.45;23.10;;;;;;;13.02;35.30;95751.28;5054673;28;20024;-73
2023/02/17 07:45:03;;;;;;;34.75;21.27;;;;;;;14.14;33.49;95751.03;5049576;28;20403;-73
2023/02/17 07:47:30;;;;;;;37.90;24.77;;;;;;;14.91;32.39;95755.94;5069463;28;20035;-73
2023/02/17 07:49:55;;;;;;;45.80;26.33;;;;;;;15.20;31.43;95753.41;5046298;28;20053;-74
2023/02/17 07:52:21;;;;;;;49.92;27.13;;;;;;;16.03;29.92;95753.19;5049664;28;20025;-73
2023/02/17 07:54:47;;;;;;;45.40;26.38;;;;;;;16.98;28.73;95742.69;5061649;28;20033;-73
2023/02/17 07:57:12;;;;;;;41.88;26.23;;;;;;;17.77;27.77;95743.94;5052776;28;20028;-73
2023/02/17 07:59:38;;;;;;;46.33;28.88;;;;;;;18.29;26.79;95730.16;5064047;28;20036;-73
2023/02/17 08:02:03;;;;;;;47.88;27.13;;;;;;;18.98;25.79;95733.78;5064292;28;20029;-73
2023/02/17 08:04:28;;;;;;;39.38;25.13;;;;;;;19.41;25.03;95718.81;5065589;28;20029;-73
2023/02/17 08:06:54;;;;;;;40.80;25.02;;;;;;;20.06;24.16;95742.72;5063494;28;20040;-73
2023/02/17 08:14:57;;;;;;;35.20;24.48;;;;;;;20.38;22.51;95737.63;5074945;28;20747;-73
2023/02/17 08:17:22;;;;;;;36.70;24.70;;;;;;;20.71;23.52;95733.19;5067498;28;20024;-72
2023/02/17 08:19:48;;;;;;;35.88;24.58;;;;;;;20.74;22.64;95717.81;5065019;28;20024;-72
2023/02/17 08:22:14;;;;;;;36.70;23.80;;;;;;;21.02;22.66;95733.28;5060518;28;20051;-73
2023/02/17 08:24:39;;;;;;;34.72;24.25;;;;;;;20.28;22.65;95737.78;5055329;28;20032;-73
2023/02/17 08:27:05;;;;;;;32.10;21.67;;;;;;;18.51;26.15;95736.75;5067326;28;20430;-72
2023/02/17 08:29:30;;;;;;;40.08;26.35;;;;;;;17.16;27.50;95734.91;5061069;28;20094;-72
2023/02/17 08:31:56;;;;;;;38.05;25.33;;;;;;;16.30;28.81;95742.84;5066676;28;20024;-72
2023/02/17 08:34:21;;;;;;;36.70;24.15;;;;;;;15.42;29.95;95720.16;5065510;28;20044;-72
2023/02/17 08:36:47;;;;;;;41.72;25.95;;;;;;;14.81;30.45;95741.97;5065991;28;20028;-72
2023/02/17 08:39:14;;;;;;;39.97;26.33;;;;;;;13.99;32.05;95734.00;5047203;28;20043;-72
2023/02/17 08:41:40;;;;;;;40.22;26.23;;;;;;;13.61;32.38;95724.88;5052325;28;20111;-72
2023/02/17 08:44:07;;;;;;;40.30;24.08;;;;;;;13.12;32.37;95736.56;5066472;28;20688;-73
2023/02/17 08:46:33;;;;;;;35.60;24.23;;;;;;;12.40;34.28;95731.69;5052507;28;20062;-72
2023/02/17 08:48:59;;;;;;;33.47;22.92;;;;;;;12.37;34.60;95739.72;5065706;28;20063;-73
2023/02/17 08:51:24;;;;;;;36.83;23.95;;;;;;;12.17;34.85;95739.44;5065459;28;20051;-73
2023/02/17 08:53:51;;;;;;;29.52;19.83;;;;;;;11.98;34.68;95723.50;5065737;28;20035;-72
2023/02/17 08:56:16;;;;;;;26.42;16.95;;;;;;;11.90;33.69;95741.50;5067343;28;20487;-72
2023/02/17 08:58:42;;;;;;;24.00;16.13;;;;;;;11.79;33.62;95739.66;5063775;28;20056;-72
2023/02/17 09:01:07;;;;;;;27.27;15.35;;;;;;;11.58;34.28;95742.84;5066459;28;20033;-72
2023/02/17 09:03:34;;;;;;;24.92;15.20;;;;;;;11.52;34.02;95740.69;5064085;28;20036;-72
2023/02/17 09:06:00;;;;;;;26.83;15.73;;;;;;;11.38;34.39;95725.25;5031083;28;20426;-72
2023/02/17 09:08:25;;;;;;;26.48;15.68;;;;;;;11.24;35.09;95747.03;5063612;28;20043;-72
2023/02/17 09:10:51;;;;;;;25.00;15.43;;;;;;;11.27;35.07;95743.38;5051855;28;20024;-72
2023/02/17 09:13:16;;;;;;;24.73;15.32;;;;;;;11.15;34.38;95734.69;5069314;28;20053;-72
2023/02/17 09:15:42;;;;;;;28.42;15.80;;;;;;;11.16;34.89;95741.53;5052466;28;20034;-73
2023/02/17 09:18:07;;;;;;;25.08;14.45;;;;;;;11.14;35.20;95739.06;5068615;28;20041;-73
2023/02/17 09:20:33;;;;;;;28.50;15.05;;;;;;;11.21;35.46;95728.22;5073375;28;20624;-74
2023/02/17 09:22:58;;;;;;;24.92;15.05;;;;;;;11.11;35.15;95734.03;5068049;28;20036;-73
2023/02/17 09:25:24;;;;;;;22.60;15.13;;;;;;;10.83;34.90;95726.53;5069852;28;20036;-73
2023/02/17 09:27:49;;;;;;;25.98;14.57;;;;;;;10.95;35.35;95725.69;5052348;28;20032;-73
2023/02/17 09:30:15;;;;;;;27.25;14.85;;;;;;;11.05;35.65;95725.84;5073182;28;20032;-73
2023/02/17 09:32:41;;;;;;;27.45;15.00;;;;;;;11.19;35.51;95712.72;5085621;28;20193;-73
2023/02/17 09:35:10;;;;;;;25.98;14.90;;;;;;;11.16;37.09;95718.97;5053549;28;20032;-74
2023/02/17 09:37:35;;;;;;;31.77;16.52;;;;;;;11.31;35.14;95724.00;5085739;28;20426;-72
2023/02/17 09:40:00;;;;;;;27.23;16.65;;;;;;;11.36;35.21;95714.94;5067199;28;20090;-73
2023/02/17 09:42:26;;;;;;;25.73;15.85;;;;;;;11.34;35.09;95708.22;5070195;28;20103;-73
2023/02/17 09:45:07;;;;;;;27.23;14.25;;;;;;;11.32;35.36;95721.31;5085320;28;20032;-73
2023/02/17 09:47:39;;;;;;;32.40;15.55;;;;;;;11.18;34.08;95724.88;5085745;28;20400;-73
2023/02/17 09:50:07;;;;;;;27.63;14.82;;;;;;;11.31;34.52;95716.19;5066053;28;20044;-73
2023/02/17 09:52:41;;;;;;;25.33;14.20;;;;;;;11.12;33.89;95720.13;5069787;28;20024;-73
2023/02/17 09:55:24;;;;;;;23.35;13.85;;;;;;;11.24;34.00;95715.81;5066142;28;20417;-73
2023/02/17 09:57:58;;;;;;;27.90;13.13;;;;;;;11.29;34.01;95718.94;5052791;28;20573;-73
2023/02/17 10:00:48;;;;;;;28.55;13.30;;;;;;;11.26;33.41;95697.53;5051530;28;20526;-73
2023/02/17 10:03:25;;;;;;;24.35;13.65;;;;;;;11.30;34.28;95688.53;5086152;28;20075;-73
2023/02/17 10:05:54;;;;;;;24.15;13.73;;;;;;;11.40;34.19;95692.97;5068609;28;20032;-73
2023/02/17 10:08:24;;;;;;;23.95;14.88;;;;;;;11.33;34.04;95699.56;5049999;28;20452;-73
2023/02/17 10:10:52;;;;;;;26.55;15.77;;;;;;;11.35;35.64;95696.84;5086041;28;20028;-73
2023/02/17 10:13:18;;;;;;;27.10;16.20;;;;;;;11.49;33.61;95690.66;5069372;28;20055;-73
2023/02/17 10:15:45;;;;;;;29.02;15.52;;;;;;;11.46;33.60;95702.09;5051257;28;20029;-73
2023/02/17 10:18:15;;;;;;;28.08;15.90;;;;;;;11.66;34.05;95684.22;5067974;28;20032;-73
2023/02/17 10:20:54;;;;;;;28.52;14.43;;;;;;;11.94;33.18;95677.84;5050099;28;20430;-73
2023/02/17 10:23:24;;;;;;;26.70;14.63;;;;;;;11.95;32.88;95682.94;5088220;28;20042;-73
2023/02/17 10:26:11;;;;;;;27.77;14.05;;;;;;;11.97;32.79;95673.22;5085207;28;20117;-73
2023/02/17 10:29:03;;;;;;;21.48;12.57;;;;;;;11.96;31.72;95668.13;5061444;28;20502;-74
2023/02/17 10:32:07;;;;;;;24.48;13.90;;;;;;;12.10;32.87;95665.31;5069585;28;20089;-73
2023/02/17 10:34:37;;;;;;;19.23;12.75;;;;;;;12.18;32.13;95662.16;5056999;28;20049;-73
2023/02/17 10:37:04;;;;;;;20.65;12.27;;;;;;;12.24;31.61;95646.03;5070766;28;20035;-73
2023/02/17 10:39:41;;;;;;;18.67;11.15;;;;;;;12.39;32.78;95657.88;5100012;28;20044;-73
2023/02/17 10:42:13;;;;;;;16.38;9.93;;;;;;;12.71;30.93;95657.19;5068780;28;20067;-74
2023/02/17 10:44:38;;;;;;;17.08;10.00;;;;;;;12.83;31.50;95650.19;5051488;28;20056;-74
2023/02/17 10:47:04;;;;;;;19.65;9.40;;;;;;;12.79;30.75;95643.53;5066874;28;20028;-73
2023/02/17 10:49:33;;;;;;;11.25;6.35;;;;;;;12.96;27.98;95646.50;5067404;28;20028;-73
2023/02/17 10:52:09;;;;;;;8.95;4.05;;;;;;;12.89;27.26;95650.53;5052611;28;20032;-73
2023/02/17 10:54:37;;;;;;;5.32;3.45;;;;;;;12.82;27.42;95636.31;5048698;28;20036;-73
2023/02/17 10:57:03;;;;;;;5.60;3.55;;;;;;;12.75;28.04;95635.13;5049641;28;20032;-74
2023/02/17 10:59:40;;;;;;;8.93;4.72;;;;;;;12.84;28.13;95637.03;5049945;28;20398;-73
2023/02/17 11:02:32;;;;;;;6.40;3.58;;;;;;;12.86;26.76;95629.91;5050707;28;20028;-73
2023/02/17 11:04:58;;;;;;;6.43;3.80;;;;;;;12.92;27.24;95634.63;5049500;28;20129;-74
2023/02/17 11:07:32;;;;;;;9.20;4.18;;;;;;;12.87;26.87;95622.91;5068678;28;20032;-72
2023/02/17 11:09:59;;;;;;;8.38;3.83;;;;;;;12.88;27.45;95620.19;5064855;28;20081;-73
2023/02/17 11:12:33;;;;;;;24.67;17.92;;;;;;;13.10;28.35;95632.34;5061369;28;20158;-73
2023/02/17 11:14:59;;;;;;;10.80;4.75;;;;;;;12.87;27.19;95626.38;5067655;28;20497;-76
2023/02/17 11:17:28;;;;;;;8.55;5.05;;;;;;;13.05;27.40;95615.41;5031705;28;20036;-74
2023/02/17 11:20:06;;;;;;;10.25;4.43;;;;;;;13.20;27.32;95622.00;5064880;28;20026;-77
2023/02/17 11:22:58;;;;;;;11.23;5.13;;;;;;;13.10;26.95;95606.28;5034073;28;20037;-77
2023/02/17 11:25:28;;;;;;;7.68;4.85;;;;;;;13.20;27.69;95590.69;5051468;28;20025;-75
2023/02/17 11:27:58;;;;;;;9.82;5.38;;;;;;;13.48;28.16;95612.78;5050083;28;20040;-76
2023/02/17 11:30:24;;;;;;;7.47;4.15;;;;;;;13.34;26.84;95577.38;5049614;28;20461;-77